Time,TemperatureF,DewpointF,PressureIn,WindDirection,WindDirectionDegrees,WindSpeedMPH,WindSpeedGustMPH,Humidity,HourlyPrecipIn,Conditions,Clouds,dailyrainin,SoftwareType,DateUTC
2013-09-18 00:00:00,62.7,54.3,30.15,ESE,102,0.0,0.0,74,0.00,,,0.00,Wunderground v.1.15,2013-09-18 05:00:00,
2013-09-18 00:10:00,62.4,54.0,30.15,ESE,102,0.0,0.0,74,0.00,,,0.00,Wunderground v.1.15,2013-09-18 05:10:00,
2013-09-18 00:20:00,62.3,54.3,30.15,ESE,102,0.0,0.0,75,0.00,,,0.00,Wunderground v.1.15,2013-09-18 05:20:00,
2013-09-18 00:25:00,62.2,54.2,30.15,ESE,102,0.0,0.0,75,0.00,,,0.00,Wunderground v.1.15,2013-09-18 05:25:00,
2013-09-18 00:30:00,62.3,54.3,30.15,ESE,102,0.0,0.0,75,0.00,,,0.00,Wunderground v.1.15,2013-09-18 05:30:00,
2013-09-18 00:35:00,62.2,54.2,30.15,ESE,102,0.0,0.0,75,0.00,,,0.00,Wunderground v.1.15,2013-09-18 05:35:00,
2013-09-18 00:40:00,62.2,54.2,30.15,ESE,102,0.0,0.0,75,0.00,,,0.00,Wunderground v.1.15,2013-09-18 05:40:00,
2013-09-18 00:50:00,62.2,54.2,30.15,ESE,102,0.0,0.0,75,0.00,,,0.00,Wunderground v.1.15,2013-09-18 05:50:00,
2013-09-18 01:00:00,62.0,54.0,30.15,ESE,102,0.0,0.0,75,0.00,,,0.00,Wunderground v.1.15,2013-09-18 06:00:00,
2013-09-18 01:05:00,61.9,53.9,30.15,ESE,102,0.0,0.0,75,0.00,,,0.00,Wunderground v.1.15,2013-09-18 06:05:00,
2013-09-18 01:15:00,61.7,53.7,30.15,ESE,102,0.0,0.0,75,0.00,,,0.00,Wunderground v.1.15,2013-09-18 06:15:00,
2013-09-18 01:20:00,61.6,54.0,30.15,ESE,102,0.0,0.0,76,0.00,,,0.00,Wunderground v.1.15,2013-09-18 06:20:00,
2013-09-18 01:30:00,61.3,53.7,30.15,ESE,102,0.0,0.0,76,0.00,,,0.00,Wunderground v.1.15,2013-09-18 06:30:00,
2013-09-18 01:35:00,61.3,54.0,30.15,ESE,102,0.0,0.0,77,0.00,,,0.00,Wunderground v.1.15,2013-09-18 06:35:00,
2013-09-18 01:45:00,61.3,54.0,30.15,ESE,102,0.0,0.0,77,0.00,,,0.00,Wunderground v.1.15,2013-09-18 06:45:00,
2013-09-18 01:50:00,61.4,54.1,30.15,ESE,102,0.0,0.0,77,0.00,,,0.00,Wunderground v.1.15,2013-09-18 06:50:00,
2013-09-18 01:55:00,61.4,54.1,30.15,ESE,102,0.0,0.0,77,0.00,,,0.00,Wunderground v.1.15,2013-09-18 06:55:00,
2013-09-18 02:05:00,61.5,54.2,30.15,ESE,102,0.0,0.0,77,0.00,,,0.00,Wunderground v.1.15,2013-09-18 07:05:00,
2013-09-18 02:10:00,61.6,54.0,30.14,ESE,102,0.0,0.0,76,0.00,,,0.00,Wunderground v.1.15,2013-09-18 07:10:00,
2013-09-18 02:20:00,61.7,54.1,30.14,ESE,102,1.0,2.0,76,0.00,,,0.00,Wunderground v.1.15,2013-09-18 07:20:00,
2013-09-18 02:30:00,61.8,54.2,30.14,ESE,102,0.0,0.0,76,0.00,,,0.00,Wunderground v.1.15,2013-09-18 07:30:00,
2013-09-18 02:35:00,61.8,54.2,30.14,ESE,102,0.0,0.0,76,0.00,,,0.00,Wunderground v.1.15,2013-09-18 07:35:00,
2013-09-18 02:40:00,61.8,54.2,30.14,ESE,102,0.0,0.0,76,0.00,,,0.00,Wunderground v.1.15,2013-09-18 07:40:00,
2013-09-18 02:50:00,61.7,54.4,30.13,ESE,102,0.0,0.0,77,0.00,,,0.00,Wunderground v.1.15,2013-09-18 07:50:00,
2013-09-18 02:55:00,61.6,54.3,30.13,ESE,103,0.0,0.0,77,0.00,,,0.00,Wunderground v.1.15,2013-09-18 07:55:00,
2013-09-18 03:05:00,61.5,54.2,30.13,ESE,102,0.0,0.0,77,0.00,,,0.00,Wunderground v.1.15,2013-09-18 08:05:00,
2013-09-18 03:10:00,61.5,54.6,30.13,ESE,102,0.0,0.0,78,0.00,,,0.00,Wunderground v.1.15,2013-09-18 08:10:00,
2013-09-18 03:20:00,61.4,54.5,30.13,ESE,102,0.0,0.0,78,0.00,,,0.00,Wunderground v.1.15,2013-09-18 08:20:00,
2013-09-18 03:25:00,61.4,54.5,30.13,ESE,102,0.0,0.0,78,0.00,,,0.00,Wunderground v.1.15,2013-09-18 08:25:00,
2013-09-18 03:35:00,61.2,54.3,30.12,ESE,102,0.0,0.0,78,0.00,,,0.00,Wunderground v.1.15,2013-09-18 08:35:00,
2013-09-18 03:40:00,61.2,54.3,30.12,ESE,102,0.0,0.0,78,0.00,,,0.00,Wunderground v.1.15,2013-09-18 08:40:00,
2013-09-18 03:50:00,61.2,54.3,30.13,ESE,102,0.0,0.0,78,0.00,,,0.00,Wunderground v.1.15,2013-09-18 08:50:00,
2013-09-18 03:55:00,61.2,54.3,30.12,ESE,102,0.0,0.0,78,0.00,,,0.00,Wunderground v.1.15,2013-09-18 08:55:00,
2013-09-18 04:05:00,61.2,54.3,30.12,ESE,102,0.0,0.0,78,0.00,,,0.00,Wunderground v.1.15,2013-09-18 09:05:00,
2013-09-18 04:10:00,61.2,54.3,30.12,ESE,102,0.0,3.0,78,0.00,,,0.00,Wunderground v.1.15,2013-09-18 09:10:00,
2013-09-18 04:20:00,61.3,54.4,30.12,ESE,103,1.0,1.0,78,0.00,,,0.00,Wunderground v.1.15,2013-09-18 09:20:00,
2013-09-18 04:25:00,61.3,54.4,30.12,ESE,103,0.0,1.0,78,0.00,,,0.00,Wunderground v.1.15,2013-09-18 09:25:00,
2013-09-18 04:35:00,61.2,54.3,30.12,ESE,103,0.0,0.0,78,0.00,,,0.00,Wunderground v.1.15,2013-09-18 09:35:00,
2013-09-18 04:40:00,61.2,54.6,30.12,ESE,103,0.0,0.0,79,0.00,,,0.00,Wunderground v.1.15,2013-09-18 09:40:00,
2013-09-18 04:50:00,61.1,54.5,30.12,ESE,103,0.0,0.0,79,0.00,,,0.00,Wunderground v.1.15,2013-09-18 09:50:00,
2013-09-18 04:55:00,61.1,54.5,30.12,ESE,103,0.0,0.0,79,0.00,,,0.00,Wunderground v.1.15,2013-09-18 09:55:00,
2013-09-18 05:05:00,61.0,54.8,30.13,ESE,103,0.0,0.0,80,0.00,,,0.00,Wunderground v.1.15,2013-09-18 10:05:00,
2013-09-18 05:10:00,61.0,54.8,30.13,ESE,103,0.0,0.0,80,0.00,,,0.00,Wunderground v.1.15,2013-09-18 10:10:00,
2013-09-18 05:20:00,60.9,54.7,30.13,ESE,103,0.0,0.0,80,0.00,,,0.00,Wunderground v.1.15,2013-09-18 10:20:00,
2013-09-18 05:30:00,61.0,54.8,30.13,ESE,103,0.0,0.0,80,0.00,,,0.00,Wunderground v.1.15,2013-09-18 10:30:00,
2013-09-18 05:35:00,61.1,54.9,30.13,ESE,103,0.0,0.0,80,0.00,,,0.00,Wunderground v.1.15,2013-09-18 10:35:00,
2013-09-18 05:45:00,61.2,55.0,30.13,ESE,103,0.0,0.0,80,0.00,,,0.00,Wunderground v.1.15,2013-09-18 10:45:00,
2013-09-18 05:50:00,61.2,55.0,30.13,ESE,103,0.0,0.0,80,0.00,,,0.00,Wunderground v.1.15,2013-09-18 10:50:00,
2013-09-18 06:00:00,61.3,55.1,30.13,ESE,103,0.0,0.0,80,0.00,,,0.00,Wunderground v.1.15,2013-09-18 11:00:00,
2013-09-18 06:05:00,61.4,55.2,30.13,ESE,103,0.0,0.0,80,0.00,,,0.00,Wunderground v.1.15,2013-09-18 11:05:00,
2013-09-18 06:15:00,61.4,55.2,30.13,ESE,103,0.0,0.0,80,0.00,,,0.00,Wunderground v.1.15,2013-09-18 11:15:00,
2013-09-18 06:25:00,61.5,55.3,30.13,ESE,103,0.0,0.0,80,0.00,,,0.00,Wunderground v.1.15,2013-09-18 11:25:00,
2013-09-18 06:30:00,61.6,55.0,30.13,ESE,103,0.0,0.0,79,0.00,,,0.00,Wunderground v.1.15,2013-09-18 11:30:00,
2013-09-18 06:40:00,61.7,55.1,30.13,ESE,103,0.0,0.0,79,0.00,,,0.00,Wunderground v.1.15,2013-09-18 11:40:00,
2013-09-18 06:45:00,61.8,55.2,30.13,ESE,103,0.0,0.0,79,0.00,,,0.00,Wunderground v.1.15,2013-09-18 11:45:00,
2013-09-18 06:55:00,62.0,55.4,30.13,ESE,103,0.0,0.0,79,0.00,,,0.00,Wunderground v.1.15,2013-09-18 11:55:00,
2013-09-18 07:05:00,62.1,55.5,30.13,ESE,103,0.0,0.0,79,0.00,,,0.00,Wunderground v.1.15,2013-09-18 12:05:00,
2013-09-18 07:10:00,62.2,55.6,30.13,ESE,103,0.0,0.0,79,0.00,,,0.00,Wunderground v.1.15,2013-09-18 12:10:00,
2013-09-18 07:15:00,62.3,55.7,30.13,ESE,103,0.0,0.0,79,0.00,,,0.00,Wunderground v.1.15,2013-09-18 12:15:00,
2013-09-18 07:25:00,62.5,55.9,30.13,ESE,103,0.0,0.0,79,0.00,,,0.00,Wunderground v.1.15,2013-09-18 12:25:00,
2013-09-18 07:35:00,62.7,55.7,30.13,ESE,103,0.0,0.0,78,0.00,,,0.00,Wunderground v.1.15,2013-09-18 12:35:00,
2013-09-18 07:40:00,62.8,55.8,30.13,ESE,103,0.0,0.0,78,0.00,,,0.00,Wunderground v.1.15,2013-09-18 12:40:00,
2013-09-18 07:50:00,63.1,56.1,30.13,ESE,103,0.0,0.0,78,0.00,,,0.00,Wunderground v.1.15,2013-09-18 12:50:00,
2013-09-18 07:55:00,63.2,55.9,30.13,ESE,103,0.0,0.0,77,0.00,,,0.00,Wunderground v.1.15,2013-09-18 12:55:00,
2013-09-18 08:00:00,63.4,56.1,30.14,ESE,103,0.0,0.0,77,0.00,,,0.00,Wunderground v.1.15,2013-09-18 13:00:00,
2013-09-18 08:10:00,63.8,56.4,30.14,ESE,103,0.0,0.0,77,0.00,,,0.00,Wunderground v.1.15,2013-09-18 13:10:00,
2013-09-18 08:20:00,64.3,56.6,30.14,ESE,103,0.0,0.0,76,0.00,,,0.00,Wunderground v.1.15,2013-09-18 13:20:00,
2013-09-18 08:25:00,64.5,56.8,30.14,ESE,103,0.0,0.0,76,0.00,,,0.00,Wunderground v.1.15,2013-09-18 13:25:00,
2013-09-18 08:35:00,65.1,57.0,30.14,SE,131,1.0,3.0,75,0.00,,,0.00,Wunderground v.1.15,2013-09-18 13:35:00,
2013-09-18 08:40:00,65.3,56.8,30.14,SE,132,1.0,1.0,74,0.00,,,0.00,Wunderground v.1.15,2013-09-18 13:40:00,
2013-09-18 08:50:00,65.6,57.5,30.14,SE,145,1.0,3.0,75,0.00,,,0.00,Wunderground v.1.15,2013-09-18 13:50:00,
2013-09-18 09:00:00,66.2,57.7,30.14,SSE,148,2.0,5.0,74,0.00,,,0.00,Wunderground v.1.15,2013-09-18 14:00:00,
2013-09-18 09:05:00,66.5,57.2,30.14,South,179,3.0,5.0,72,0.00,,,0.00,Wunderground v.1.15,2013-09-18 14:05:00,
2013-09-18 09:10:00,66.8,57.5,30.14,South,171,3.0,3.0,72,0.00,,,0.00,Wunderground v.1.15,2013-09-18 14:10:00,
2013-09-18 09:20:00,67.2,57.5,30.14,SSE,151,3.0,3.0,71,0.00,,,0.00,Wunderground v.1.15,2013-09-18 14:20:00,
2013-09-18 09:30:00,67.6,57.9,30.14,SSE,153,3.0,4.0,71,0.00,,,0.00,Wunderground v.1.15,2013-09-18 14:30:00,
2013-09-18 09:35:00,67.9,58.5,30.14,SSW,199,3.0,4.0,72,0.00,,,0.00,Wunderground v.1.15,2013-09-18 14:35:00,
2013-09-18 09:45:00,68.7,59.7,30.14,South,187,3.0,6.0,73,0.00,,,0.00,Wunderground v.1.15,2013-09-18 14:45:00,
2013-09-18 09:50:00,69.2,59.4,30.14,SSW,193,4.0,4.0,71,0.00,,,0.00,Wunderground v.1.15,2013-09-18 14:50:00,
2013-09-18 10:00:00,70.1,60.3,30.14,SSW,206,3.0,6.0,71,0.00,,,0.00,Wunderground v.1.15,2013-09-18 15:00:00,
2013-09-18 10:05:00,70.6,60.3,30.14,South,191,4.0,6.0,70,0.00,,,0.00,Wunderground v.1.15,2013-09-18 15:05:00,
2013-09-18 10:15:00,72.0,61.7,30.13,SSW,201,4.0,5.0,70,0.00,,,0.00,Wunderground v.1.15,2013-09-18 15:15:00,
2013-09-18 10:20:00,73.1,62.7,30.13,SSW,198,5.0,5.0,70,0.00,,,0.00,Wunderground v.1.15,2013-09-18 15:20:00,
2013-09-18 10:30:00,75.8,62.8,30.13,SSE,155,4.0,4.0,64,0.00,,,0.00,Wunderground v.1.15,2013-09-18 15:30:00,
2013-09-18 10:35:00,76.7,63.2,30.13,South,186,4.0,4.0,63,0.00,,,0.00,Wunderground v.1.15,2013-09-18 15:35:00,
2013-09-18 10:45:00,78.0,63.5,30.12,SSW,203,5.0,5.0,61,0.00,,,0.00,Wunderground v.1.15,2013-09-18 15:45:00,
2013-09-18 10:55:00,78.5,63.0,30.12,SSE,154,4.0,4.0,59,0.00,,,0.00,Wunderground v.1.15,2013-09-18 15:55:00,
2013-09-18 11:00:00,78.8,63.7,30.12,SSE,155,5.0,5.0,60,0.00,,,0.00,Wunderground v.1.15,2013-09-18 16:00:00,
2013-09-18 11:05:00,79.1,64.0,30.11,SSE,155,5.0,5.0,60,0.00,,,0.00,Wunderground v.1.15,2013-09-18 16:05:00,
2013-09-18 11:10:00,79.9,64.8,30.12,SSE,159,4.0,4.0,60,0.00,,,0.00,Wunderground v.1.15,2013-09-18 16:10:00,
2013-09-18 11:20:00,81.6,64.4,30.11,SSW,207,4.0,4.0,56,0.00,,,0.00,Wunderground v.1.15,2013-09-18 16:20:00,
2013-09-18 11:25:00,82.3,65.5,30.11,South,190,5.0,5.0,57,0.00,,,0.00,Wunderground v.1.15,2013-09-18 16:25:00,
2013-09-18 11:35:00,83.4,65.5,30.11,SSW,209,7.0,7.0,55,0.00,,,0.00,Wunderground v.1.15,2013-09-18 16:35:00,
2013-09-18 11:45:00,83.6,65.2,30.10,South,190,7.0,7.0,54,0.00,,,0.00,Wunderground v.1.15,2013-09-18 16:45:00,
2013-09-18 11:50:00,83.2,64.8,30.10,South,184,7.0,7.0,54,0.00,,,0.00,Wunderground v.1.15,2013-09-18 16:50:00,
2013-09-18 12:00:00,82.9,65.1,30.10,South,170,5.0,5.0,55,0.00,,,0.00,Wunderground v.1.15,2013-09-18 17:00:00,
2013-09-18 12:05:00,83.3,64.9,30.10,SSW,204,6.0,8.0,54,0.00,,,0.00,Wunderground v.1.15,2013-09-18 17:05:00,
2013-09-18 12:15:00,84.3,65.8,30.09,SSE,156,7.0,10.0,54,0.00,,,0.00,Wunderground v.1.15,2013-09-18 17:15:00,
2013-09-18 12:25:00,85.2,66.1,30.09,SW,225,8.0,8.0,53,0.00,,,0.00,Wunderground v.1.15,2013-09-18 17:25:00,
2013-09-18 12:30:00,85.7,65.5,30.09,SW,227,9.0,9.0,51,0.00,,,0.00,Wunderground v.1.15,2013-09-18 17:30:00,
2013-09-18 12:40:00,86.1,65.9,30.09,SW,217,8.0,8.0,51,0.00,,,0.00,Wunderground v.1.15,2013-09-18 17:40:00,
2013-09-18 12:45:00,86.1,65.3,30.08,SW,222,7.0,10.0,50,0.00,,,0.00,Wunderground v.1.15,2013-09-18 17:45:00,
2013-09-18 12:55:00,86.2,65.9,30.08,South,175,8.0,8.0,51,0.00,,,0.00,Wunderground v.1.15,2013-09-18 17:55:00,
2013-09-18 13:05:00,85.4,65.2,30.08,SSW,205,8.0,8.0,51,0.00,,,0.00,Wunderground v.1.15,2013-09-18 18:05:00,
2013-09-18 13:10:00,84.9,65.9,30.08,SSW,209,9.0,13.0,53,0.00,,,0.00,Wunderground v.1.15,2013-09-18 18:10:00,
2013-09-18 13:20:00,84.5,65.5,30.07,SSW,194,6.0,6.0,53,0.00,,,0.00,Wunderground v.1.15,2013-09-18 18:20:00,
2013-09-18 13:25:00,84.4,65.4,30.07,SW,216,6.0,7.0,53,0.00,,,0.00,Wunderground v.1.15,2013-09-18 18:25:00,
2013-09-18 13:35:00,84.5,66.0,30.07,SW,223,7.0,7.0,54,0.00,,,0.00,Wunderground v.1.15,2013-09-18 18:35:00,
2013-09-18 13:45:00,85.0,66.0,30.06,South,185,7.0,8.0,53,0.00,,,0.00,Wunderground v.1.15,2013-09-18 18:45:00,
2013-09-18 13:50:00,85.2,66.1,30.05,SSW,198,9.0,9.0,53,0.00,,,0.00,Wunderground v.1.15,2013-09-18 18:50:00,
2013-09-18 13:55:00,85.4,65.8,30.05,SW,228,8.0,9.0,52,0.00,,,0.00,Wunderground v.1.15,2013-09-18 18:55:00,
2013-09-18 14:05:00,85.5,66.4,30.05,SSE,164,8.0,8.0,53,0.00,,,0.00,Wunderground v.1.15,2013-09-18 19:05:00,
2013-09-18 14:15:00,85.4,65.8,30.04,SSW,205,7.0,8.0,52,0.00,,,0.00,Wunderground v.1.15,2013-09-18 19:15:00,
2013-09-18 14:25:00,85.1,66.6,30.04,SW,225,8.0,12.0,54,0.00,,,0.00,Wunderground v.1.15,2013-09-18 19:25:00,
2013-09-18 14:30:00,85.4,66.9,30.04,SW,230,8.0,8.0,54,0.00,,,0.00,Wunderground v.1.15,2013-09-18 19:30:00,
2013-09-18 14:45:00,85.7,66.0,30.03,SSW,206,7.0,8.0,52,0.00,,,0.00,Wunderground v.1.15,2013-09-18 19:45:00,
2013-09-18 14:55:00,85.1,66.6,30.03,South,190,6.0,8.0,54,0.00,,,0.00,Wunderground v.1.15,2013-09-18 19:55:00,
2013-09-18 15:05:00,84.9,66.4,30.02,SE,140,6.0,7.0,54,0.00,,,0.00,Wunderground v.1.15,2013-09-18 20:05:00,
2013-09-18 15:15:00,84.8,65.2,30.02,SSE,168,5.0,7.0,52,0.00,,,0.00,Wunderground v.1.15,2013-09-18 20:15:00,
2013-09-18 15:20:00,84.6,65.6,30.01,SSW,206,5.0,5.0,53,0.00,,,0.00,Wunderground v.1.15,2013-09-18 20:20:00,
2013-09-18 15:30:00,84.4,65.9,30.01,ESE,105,4.0,4.0,54,0.00,,,0.00,Wunderground v.1.15,2013-09-18 20:30:00,
2013-09-18 15:35:00,84.3,65.3,30.01,South,180,4.0,5.0,53,0.00,,,0.00,Wunderground v.1.15,2013-09-18 20:35:00,
2013-09-18 15:45:00,84.3,64.8,30.01,SSE,161,6.0,8.0,52,0.00,,,0.00,Wunderground v.1.15,2013-09-18 20:45:00,
2013-09-18 15:50:00,84.3,64.8,30.01,South,172,6.0,6.0,52,0.00,,,0.00,Wunderground v.1.15,2013-09-18 20:50:00,
2013-09-18 16:00:00,84.4,64.9,30.01,SSW,207,6.0,6.0,52,0.00,,,0.00,Wunderground v.1.15,2013-09-18 21:00:00,
2013-09-18 16:05:00,84.5,64.9,30.00,SSW,200,6.0,6.0,52,0.00,,,0.00,Wunderground v.1.15,2013-09-18 21:05:00,
2013-09-18 16:15:00,84.6,64.5,30.01,South,176,6.0,6.0,51,0.00,,,0.00,Wunderground v.1.15,2013-09-18 21:15:00,
2013-09-18 16:25:00,84.5,64.9,30.00,South,187,5.0,5.0,52,0.00,,,0.00,Wunderground v.1.15,2013-09-18 21:25:00,
2013-09-18 16:35:00,84.2,64.7,30.00,SSW,204,5.0,7.0,52,0.00,,,0.00,Wunderground v.1.15,2013-09-18 21:35:00,
2013-09-18 16:40:00,84.2,65.2,30.00,SSW,199,5.0,5.0,53,0.00,,,0.00,Wunderground v.1.15,2013-09-18 21:40:00,
2013-09-18 16:50:00,84.1,65.1,30.00,SSW,209,6.0,7.0,53,0.00,,,0.00,Wunderground v.1.15,2013-09-18 21:50:00,
2013-09-18 16:55:00,84.1,65.1,30.00,SSW,205,7.0,7.0,53,0.00,,,0.00,Wunderground v.1.15,2013-09-18 21:55:00,
2013-09-18 17:05:00,83.9,64.9,30.00,SSW,194,5.0,6.0,53,0.00,,,0.00,Wunderground v.1.15,2013-09-18 22:05:00,
2013-09-18 17:10:00,83.7,65.3,30.00,SSE,165,5.0,6.0,54,0.00,,,0.00,Wunderground v.1.15,2013-09-18 22:10:00,
2013-09-18 17:20:00,83.5,65.1,30.00,SSE,165,5.0,5.0,54,0.00,,,0.00,Wunderground v.1.15,2013-09-18 22:20:00,
2013-09-18 17:25:00,83.4,65.5,30.00,SSE,162,4.0,7.0,55,0.00,,,0.00,Wunderground v.1.15,2013-09-18 22:25:00,
2013-09-18 17:35:00,82.9,65.6,29.99,SSE,164,5.0,5.0,56,0.00,,,0.00,Wunderground v.1.15,2013-09-18 22:35:00,
2013-09-18 17:40:00,82.8,65.5,30.00,South,174,5.0,5.0,56,0.00,,,0.00,Wunderground v.1.15,2013-09-18 22:40:00,
2013-09-18 17:50:00,82.6,65.8,29.99,SSE,155,4.0,4.0,57,0.00,,,0.00,Wunderground v.1.15,2013-09-18 22:50:00,
2013-09-18 17:55:00,82.4,65.6,29.99,South,171,4.0,5.0,57,0.00,,,0.00,Wunderground v.1.15,2013-09-18 22:55:00,
2013-09-18 18:05:00,82.0,65.8,30.00,SSE,161,3.0,4.0,58,0.00,,,0.00,Wunderground v.1.15,2013-09-18 23:05:00,
2013-09-18 18:15:00,81.6,65.9,30.00,SSE,148,4.0,6.0,59,0.00,,,0.00,Wunderground v.1.15,2013-09-18 23:15:00,
2013-09-18 18:20:00,81.3,66.1,30.00,SSE,149,4.0,7.0,60,0.00,,,0.00,Wunderground v.1.15,2013-09-18 23:20:00,
2013-09-18 18:30:00,80.6,65.9,29.99,South,173,4.0,4.0,61,0.00,,,0.00,Wunderground v.1.15,2013-09-18 23:30:00,
2013-09-18 18:35:00,80.3,65.6,30.00,SSE,165,3.0,4.0,61,0.00,,,0.00,Wunderground v.1.15,2013-09-18 23:35:00,
2013-09-18 18:45:00,79.8,65.6,30.00,South,169,3.0,5.0,62,0.00,,,0.00,Wunderground v.1.15,2013-09-18 23:45:00,
2013-09-18 18:55:00,79.3,65.6,30.00,SSE,157,3.0,6.0,63,0.00,,,0.00,Wunderground v.1.15,2013-09-18 23:55:00,
2013-09-18 19:00:00,78.9,65.7,30.00,SSE,158,3.0,3.0,64,0.00,,,0.00,Wunderground v.1.15,2013-09-19 00:00:00,
2013-09-18 19:10:00,78.1,65.4,30.00,SSE,155,2.0,2.0,65,0.00,,,0.00,Wunderground v.1.15,2013-09-19 00:10:00,
2013-09-18 19:15:00,77.8,65.5,30.01,SSE,165,3.0,5.0,66,0.00,,,0.00,Wunderground v.1.15,2013-09-19 00:15:00,
2013-09-18 19:25:00,77.4,65.6,30.01,SSE,154,4.0,4.0,67,0.00,,,0.00,Wunderground v.1.15,2013-09-19 00:25:00,
2013-09-18 19:30:00,77.0,65.6,30.01,SSE,151,3.0,6.0,68,0.00,,,0.00,Wunderground v.1.15,2013-09-19 00:30:00,
2013-09-18 19:40:00,76.5,66.0,30.01,SSE,148,3.0,4.0,70,0.00,,,0.00,Wunderground v.1.15,2013-09-19 00:40:00,
2013-09-18 19:50:00,76.0,65.9,30.01,SSE,149,4.0,5.0,71,0.00,,,0.00,Wunderground v.1.15,2013-09-19 00:50:00,
2013-09-18 19:55:00,75.7,66.0,30.01,SSE,157,4.0,5.0,72,0.00,,,0.00,Wunderground v.1.15,2013-09-19 00:55:00,
2013-09-18 20:05:00,75.2,65.9,30.01,SSE,165,4.0,9.0,73,0.00,,,0.00,Wunderground v.1.15,2013-09-19 01:05:00,
2013-09-18 20:15:00,74.9,66.1,30.01,South,171,5.0,8.0,74,0.00,,,0.00,Wunderground v.1.15,2013-09-19 01:15:00,
2013-09-18 20:20:00,74.7,66.2,30.01,SSE,158,4.0,4.0,75,0.00,,,0.00,Wunderground v.1.15,2013-09-19 01:20:00,
2013-09-18 20:30:00,74.3,66.2,30.01,SSE,156,4.0,4.0,76,0.00,,,0.00,Wunderground v.1.15,2013-09-19 01:30:00,
2013-09-18 20:40:00,74.0,66.3,30.01,SSE,148,4.0,4.0,77,0.00,,,0.00,Wunderground v.1.15,2013-09-19 01:40:00,
2013-09-18 20:45:00,73.8,66.1,30.01,SSE,152,4.0,4.0,77,0.00,,,0.00,Wunderground v.1.15,2013-09-19 01:45:00,
2013-09-18 20:55:00,73.6,66.3,30.01,SSE,159,4.0,5.0,78,0.00,,,0.00,Wunderground v.1.15,2013-09-19 01:55:00,
2013-09-18 21:05:00,73.2,66.3,30.01,SSE,164,4.0,5.0,79,0.00,,,0.00,Wunderground v.1.15,2013-09-19 02:05:00,
2013-09-18 21:15:00,73.0,66.1,30.01,SSE,149,4.0,6.0,79,0.00,,,0.00,Wunderground v.1.15,2013-09-19 02:15:00,
2013-09-18 21:20:00,72.9,66.0,30.01,SSE,148,5.0,6.0,79,0.00,,,0.00,Wunderground v.1.15,2013-09-19 02:20:00,
2013-09-18 21:30:00,72.6,66.1,30.01,SSE,158,5.0,6.0,80,0.00,,,0.00,Wunderground v.1.15,2013-09-19 02:30:00,
2013-09-18 21:35:00,72.6,66.4,30.01,SE,132,5.0,8.0,81,0.00,,,0.00,Wunderground v.1.15,2013-09-19 02:35:00,
2013-09-18 21:45:00,72.5,66.3,30.01,SSE,153,5.0,7.0,81,0.00,,,0.00,Wunderground v.1.15,2013-09-19 02:45:00,
2013-09-18 21:50:00,72.4,66.2,30.02,SSE,155,5.0,5.0,81,0.00,,,0.00,Wunderground v.1.15,2013-09-19 02:50:00,
2013-09-18 22:00:00,72.1,66.3,30.02,SSE,153,4.0,4.0,82,0.00,,,0.00,Wunderground v.1.15,2013-09-19 03:00:00,
2013-09-18 22:15:00,71.7,65.9,30.02,South,170,3.0,4.0,82,0.00,,,0.00,Wunderground v.1.15,2013-09-19 03:15:00,
2013-09-18 22:20:00,71.7,66.3,30.02,SSE,156,4.0,4.0,83,0.00,,,0.00,Wunderground v.1.15,2013-09-19 03:20:00,
2013-09-18 22:30:00,71.5,66.1,30.02,SSE,156,4.0,4.0,83,0.00,,,0.00,Wunderground v.1.15,2013-09-19 03:30:00,
2013-09-18 22:35:00,71.4,66.0,30.02,SSE,156,4.0,5.0,83,0.00,,,0.00,Wunderground v.1.15,2013-09-19 03:35:00,
2013-09-18 22:45:00,71.3,65.9,30.02,SSE,155,4.0,4.0,83,0.00,,,0.00,Wunderground v.1.15,2013-09-19 03:45:00,
2013-09-18 22:50:00,71.1,66.0,30.02,SE,145,3.0,3.0,84,0.00,,,0.00,Wunderground v.1.15,2013-09-19 03:50:00,
2013-09-18 23:00:00,70.9,65.8,30.02,SSE,149,3.0,3.0,84,0.00,,,0.00,Wunderground v.1.15,2013-09-19 04:00:00,
2013-09-18 23:05:00,70.7,65.6,30.02,SE,131,3.0,3.0,84,0.00,,,0.00,Wunderground v.1.15,2013-09-19 04:05:00,
2013-09-18 23:10:00,70.6,65.5,30.02,SSE,160,2.0,7.0,84,0.00,,,0.00,Wunderground v.1.15,2013-09-19 04:10:00,
2013-09-18 23:20:00,70.3,65.6,30.02,SSE,150,4.0,4.0,85,0.00,,,0.00,Wunderground v.1.15,2013-09-19 04:20:00,
2013-09-18 23:25:00,70.2,65.5,30.02,SSE,147,4.0,4.0,85,0.00,,,0.00,Wunderground v.1.15,2013-09-19 04:25:00,
2013-09-18 23:30:00,70.2,65.8,30.02,SSE,153,3.0,6.0,86,0.00,,,0.00,Wunderground v.1.15,2013-09-19 04:30:00,
2013-09-18 23:40:00,70.2,65.8,30.02,South,174,4.0,4.0,86,0.00,,,0.00,Wunderground v.1.15,2013-09-19 04:40:00,
2013-09-18 23:45:00,70.2,65.8,30.02,South,172,4.0,5.0,86,0.00,,,0.00,Wunderground v.1.15,2013-09-19 04:45:00,
2013-09-18 23:55:00,70.2,66.1,30.02,SSE,167,4.0,6.0,87,0.00,,,0.00,Wunderground v.1.15,2013-09-19 04:55:00,